Terminal Aerodrome Forecast
Issued by NWS

Home | Current Version | Previous Version | Text Only | Print | Product List | Glossary On
Versions: 1 2 3 4 5 6 7 8 9 10
000
FTUS42 KFFC 261120
TAFRYY
TAF
KRYY 261120Z 2612/2712 00000KT P6SM SCT250
      TEMPO 2612/2614 3SM BR
     FM261500 VRB03KT P6SM SCT200
     FM270000 00000KT P6SM SCT150
     FM270900 00000KT P6SM BKN090=

USA.gov is the U.S. government's official web portal to all federal, state and local government web resources and services.